Time;durP1;ratioP1;P1;durP2;ratioP2;P2;SDS_P1;SDS_P2;PMS_P1;PMS_P2;Temp;Humidity;BMP_temperature;BMP_pressure;BME280_temperature;BME280_humidity;BME280_pressure;Samples;Min_cycle;Max_cycle;Signal;HPM_P1;HPM_P2
2022/02/17 00:03:26;;;;;;;7.93;0.95;;;12.00;99.90;;;;;;20493930;28;20047;-46
2022/02/17 00:13:28;;;;;;;5.97;1.23;;;12.00;99.90;;;;;;20504171;28;20291;-46
2022/02/17 00:23:29;;;;;;;11.52;1.35;;;11.90;99.90;;;;;;20516515;28;20034;-46
2022/02/17 00:33:30;;;;;;;4.43;0.85;;;11.70;99.90;;;;;;20508000;28;20046;-45
2022/02/17 00:43:31;;;;;;;5.32;1.02;;;11.80;99.90;;;;;;20507523;28;20565;-46
2022/02/17 00:53:32;;;;;;;2.90;1.05;;;11.50;99.90;;;;;;20498420;28;20043;-47
2022/02/17 01:03:33;;;;;;;1.35;0.43;;;11.20;99.90;;;;;;20510425;28;20035;-45
2022/02/17 01:13:34;;;;;;;2.05;0.30;;;11.00;99.90;;;;;;20491648;28;20047;-45
2022/02/17 01:23:36;;;;;;;6.28;1.63;;;10.80;99.90;;;;;;20488425;28;20054;-45
2022/02/17 01:33:37;;;;;;;6.68;0.70;;;10.80;99.90;;;;;;20488520;28;20043;-46
2022/02/17 01:43:38;;;;;;;3.90;0.60;;;10.80;99.90;;;;;;20482884;28;20054;-45
2022/02/17 01:53:39;;;;;;;6.07;1.23;;;10.80;99.90;;;;;;20491269;28;20054;-45
2022/02/17 02:03:42;;;;;;;11.35;0.82;;;10.80;99.90;;;;;;20475931;28;20051;-45
2022/02/17 02:13:43;;;;;;;3.33;0.80;;;10.80;99.90;;;;;;20479261;28;20054;-45
2022/02/17 02:23:44;;;;;;;4.20;1.70;;;10.90;99.90;;;;;;20473124;28;20403;-45
2022/02/17 02:33:45;;;;;;;10.18;0.63;;;11.00;99.90;;;;;;20481342;28;20067;-46
2022/02/17 02:43:47;;;;;;;10.35;1.25;;;11.00;99.90;;;;;;20475868;28;20043;-45
2022/02/17 02:53:48;;;;;;;5.28;0.85;;;10.90;99.90;;;;;;20477030;28;20028;-45
2022/02/17 03:03:49;;;;;;;9.00;1.38;;;10.80;99.90;;;;;;20474994;28;20535;-45
2022/02/17 03:13:50;;;;;;;5.28;1.08;;;10.70;99.90;;;;;;20480891;28;20043;-45
2022/02/17 03:23:51;;;;;;;12.55;1.05;;;10.50;99.90;;;;;;20474856;28;20086;-47
2022/02/17 03:33:52;;;;;;;15.85;1.13;;;10.40;99.90;;;;;;20474067;28;20373;-47
2022/02/17 03:43:53;;;;;;;8.57;1.05;;;10.30;99.90;;;;;;20475308;28;20047;-47
2022/02/17 03:53:54;;;;;;;7.00;2.20;;;10.20;99.90;;;;;;20466781;28;20036;-46
2022/02/17 04:03:55;;;;;;;6.47;1.17;;;10.20;99.90;;;;;;20472296;28;20515;-46
2022/02/17 04:13:57;;;;;;;5.03;0.80;;;10.10;99.90;;;;;;20474770;28;20047;-47
2022/02/17 04:23:59;;;;;;;4.72;0.95;;;10.10;99.90;;;;;;20468027;28;20507;-46
2022/02/17 04:34:00;;;;;;;8.00;0.70;;;10.10;99.90;;;;;;20486232;28;20043;-46
2022/02/17 04:44:04;;;;;;;4.03;0.95;;;10.00;99.90;;;;;;20490072;28;20146;-46
2022/02/17 04:54:08;;;;;;;8.65;0.70;;;10.00;99.90;;;;;;20485370;28;20119;-46
2022/02/17 05:04:09;;;;;;;11.63;1.67;;;10.10;99.90;;;;;;20487014;28;20051;-46
2022/02/17 05:14:10;;;;;;;12.68;1.35;;;10.10;99.90;;;;;;20464719;28;20529;-46
2022/02/17 05:24:11;;;;;;;2.65;0.80;;;9.20;99.90;;;;;;20403545;28;20074;-46
2022/02/17 05:34:12;;;;;;;1.27;0.50;;;8.90;99.90;;;;;;20400286;28;20680;-46
2022/02/17 05:44:14;;;;;;;4.70;0.80;;;8.80;99.90;;;;;;20454713;28;20062;-46
2022/02/17 05:54:15;;;;;;;8.38;1.27;;;8.80;99.90;;;;;;20473411;28;20058;-46
2022/02/17 06:04:16;;;;;;;5.53;1.08;;;8.80;99.90;;;;;;20478580;28;20162;-46
2022/02/17 06:14:17;;;;;;;2.65;0.80;;;8.90;99.90;;;;;;20478339;28;20404;-46
2022/02/17 06:24:18;;;;;;;5.80;0.68;;;9.00;99.90;;;;;;20481919;28;20047;-46
2022/02/17 06:34:19;;;;;;;5.47;1.02;;;9.10;99.90;;;;;;20475728;28;20540;-46
2022/02/17 06:44:20;;;;;;;2.88;0.30;;;9.20;99.90;;;;;;20481748;28;20331;-46
2022/02/17 06:54:21;;;;;;;7.72;0.50;;;9.10;99.90;;;;;;20480749;28;20058;-46
2022/02/17 07:04:22;;;;;;;7.78;0.90;;;9.00;99.90;;;;;;20475313;28;20047;-46
2022/02/17 07:14:24;;;;;;;15.82;1.38;;;9.00;99.90;;;;;;20483953;28;20119;-46
2022/02/17 07:24:25;;;;;;;9.48;1.08;;;8.90;99.90;;;;;;20479181;28;20066;-46
2022/02/17 07:34:26;;;;;;;4.60;0.50;;;9.00;99.90;;;;;;20471981;28;20038;-46
2022/02/17 07:44:27;;;;;;;2.50;0.60;;;9.00;99.90;;;;;;20469803;28;20050;-46
2022/02/17 07:54:28;;;;;;;2.65;0.85;;;9.00;99.90;;;;;;20484363;28;20043;-45
2022/02/17 08:04:35;;;;;;;2.97;0.45;;;9.00;99.90;;;;;;20470962;28;20400;-46
2022/02/17 08:14:36;;;;;;;1.00;0.30;;;9.20;99.90;;;;;;20471538;28;20043;-46
2022/02/17 08:24:37;;;;;;;6.78;1.02;;;9.20;99.90;;;;;;20477753;28;20549;-47
2022/02/17 08:34:39;;;;;;;2.72;0.70;;;9.10;99.90;;;;;;20475362;28;20686;-46
2022/02/17 08:44:40;;;;;;;5.15;0.57;;;9.20;99.90;;;;;;20496104;28;20051;-46
2022/02/17 08:54:41;;;;;;;3.35;0.25;;;9.20;99.90;;;;;;20483833;28;20042;-46
2022/02/17 09:04:43;;;;;;;2.58;0.43;;;9.20;99.90;;;;;;20469115;28;20050;-46
2022/02/17 09:14:45;;;;;;;4.72;0.40;;;9.50;99.90;;;;;;20468688;28;20495;-46
2022/02/17 09:24:46;;;;;;;1.45;0.85;;;9.70;99.90;;;;;;20468720;28;20074;-46
2022/02/17 09:34:47;;;;;;;8.98;0.40;;;9.90;99.90;;;;;;20471749;28;20050;-47
2022/02/17 09:44:48;;;;;;;1.35;0.30;;;10.10;99.90;;;;;;20473958;28;20043;-46
2022/02/17 09:54:51;;;;;;;4.70;1.90;;;10.20;99.90;;;;;;20479948;28;20679;-46
2022/02/17 10:04:54;;;;;;;2.67;0.40;;;10.30;99.90;;;;;;20465542;28;20058;-46
2022/02/17 10:14:59;;;;;;;4.50;1.25;;;10.30;99.90;;;;;;20465920;28;20035;-47
2022/02/17 10:25:01;;;;;;;4.57;1.00;;;10.40;99.90;;;;;;20460084;28;20829;-46
2022/02/17 10:35:15;;;;;;;10.43;1.65;;;10.40;99.90;;;;;;20466384;28;20074;-46
2022/02/17 10:45:20;;;;;;;5.28;0.43;;;10.50;99.90;;;;;;20471135;28;20043;-46
2022/02/17 10:55:22;;;;;;;3.45;0.52;;;10.70;99.90;;;;;;20452053;28;20035;-47
2022/02/17 11:05:23;;;;;;;2.70;0.60;;;10.80;99.90;;;;;;20459936;28;20055;-46
2022/02/17 11:15:24;;;;;;;3.80;0.50;;;11.00;99.90;;;;;;20468978;28;20050;-47
2022/02/17 11:25:33;;;;;;;2.20;0.55;;;11.40;99.90;;;;;;20473650;28;21449;-47
2022/02/17 11:35:34;;;;;;;4.18;0.55;;;11.80;99.90;;;;;;20474297;28;20135;-46
2022/02/17 11:45:45;;;;;;;1.20;0.30;;;12.50;99.90;;;;;;20510184;28;20057;-46
2022/02/17 11:55:46;;;;;;;8.45;0.32;;;12.50;99.90;;;;;;20469493;28;20076;-47
2022/02/17 12:05:47;;;;;;;6.35;0.88;;;11.20;99.90;;;;;;20446993;28;20070;-46
2022/02/17 12:15:48;;;;;;;8.52;1.58;;;11.10;99.90;;;;;;20459068;28;20074;-46
2022/02/17 12:25:50;;;;;;;2.38;0.40;;;11.60;99.90;;;;;;20456237;28;20058;-47
2022/02/17 12:35:57;;;;;;;3.03;0.65;;;11.90;99.90;;;;;;20449719;28;20039;-46
2022/02/17 12:46:00;;;;;;;2.72;0.32;;;12.60;99.90;;;;;;20467743;28;20043;-46
2022/02/17 12:56:01;;;;;;;2.03;0.93;;;12.60;99.90;;;;;;20454372;28;20031;-47
2022/02/17 13:06:17;;;;;;;4.18;0.40;;;12.30;99.90;;;;;;20460257;28;20542;-46
2022/02/17 13:16:19;;;;;;;0.55;0.20;;;12.50;99.90;;;;;;20467493;28;20784;-46
2022/02/17 13:26:33;;;;;;;1.45;0.73;;;12.10;99.90;;;;;;20462506;28;20039;-46
2022/02/17 13:36:36;;;;;;;14.88;1.10;;;11.90;99.90;;;;;;20465568;28;20059;-46
2022/02/17 13:46:53;;;;;;;2.28;0.20;;;12.80;99.90;;;;;;20465066;28;20117;-47
2022/02/17 13:57:05;;;;;;;2.33;0.32;;;12.40;99.90;;;;;;20462890;28;20031;-46
2022/02/17 14:07:07;;;;;;;2.42;0.20;;;12.00;99.90;;;;;;20458848;28;20035;-46
2022/02/17 14:17:08;;;;;;;1.17;0.13;;;11.20;99.90;;;;;;20464037;28;20058;-46
2022/02/17 14:27:09;;;;;;;1.80;0.30;;;10.50;99.90;;;;;;20469101;28;20500;-46
2022/02/17 14:37:11;;;;;;;2.20;0.52;;;10.40;99.90;;;;;;20414338;28;20046;-46
2022/02/17 14:47:12;;;;;;;1.08;0.30;;;10.30;99.90;;;;;;20401560;28;20478;-46
2022/02/17 14:57:13;;;;;;;0.85;0.10;;;10.30;99.90;;;;;;20395081;28;20115;-46
2022/02/17 15:07:14;;;;;;;2.97;0.40;;;10.10;99.90;;;;;;20422221;28;20046;-46
2022/02/17 15:17:15;;;;;;;3.72;0.43;;;10.10;99.90;;;;;;20469723;28;20038;-46
2022/02/17 15:27:18;;;;;;;7.72;0.55;;;9.90;99.90;;;;;;20456449;28;20420;-46
2022/02/17 15:37:19;;;;;;;4.15;0.35;;;9.70;99.90;;;;;;20474656;28;20050;-44
2022/02/17 15:47:21;;;;;;;1.98;0.47;;;9.70;99.90;;;;;;20481344;28;20402;-44
2022/02/17 15:57:22;;;;;;;1.70;0.35;;;9.60;99.90;;;;;;20486551;28;20514;-44
2022/02/17 16:07:23;;;;;;;5.88;0.95;;;9.40;99.90;;;;;;20478067;28;20062;-46
2022/02/17 16:17:24;;;;;;;2.10;0.30;;;9.20;99.90;;;;;;20481015;28;20046;-46
2022/02/17 16:27:25;;;;;;;1.95;0.63;;;9.00;99.90;;;;;;20481489;28;20054;-46
2022/02/17 16:37:26;;;;;;;2.45;0.80;;;8.90;99.90;;;;;;20490421;28;20039;-46
2022/02/17 16:47:28;;;;;;;4.32;1.40;;;8.80;99.90;;;;;;20499284;28;20047;-46
2022/02/17 16:57:29;;;;;;;1.13;0.40;;;8.50;99.90;;;;;;20513106;28;20040;-46
2022/02/17 17:07:31;;;;;;;4.40;0.65;;;8.40;99.90;;;;;;20445812;28;20073;-46
2022/02/17 17:17:32;;;;;;;1.65;0.50;;;8.30;99.90;;;;;;20483725;28;20384;-44
2022/02/17 17:27:33;;;;;;;4.28;0.50;;;8.10;99.90;;;;;;20490693;28;20062;-44
2022/02/17 17:37:36;;;;;;;1.80;0.45;;;8.00;99.90;;;;;;20486370;28;21544;-44
2022/02/17 17:47:37;;;;;;;4.20;0.60;;;7.90;99.90;;;;;;20521431;28;20062;-44
2022/02/17 17:57:39;;;;;;;5.55;0.55;;;7.80;99.90;;;;;;20491735;28;20101;-44
2022/02/17 18:07:41;;;;;;;2.22;0.68;;;7.80;99.90;;;;;;20488851;28;20071;-44
2022/02/17 18:17:42;;;;;;;3.88;0.65;;;7.70;99.90;;;;;;20487598;28;20085;-44
2022/02/17 18:27:43;;;;;;;1.85;0.43;;;7.60;99.90;;;;;;20482529;28;20051;-44
2022/02/17 18:37:45;;;;;;;1.95;0.40;;;7.60;99.90;;;;;;20506209;28;20526;-44
2022/02/17 18:47:48;;;;;;;1.88;0.63;;;7.60;99.90;;;;;;20474956;28;20058;-44
2022/02/17 18:57:59;;;;;;;1.67;0.50;;;7.60;99.90;;;;;;20484447;28;20050;-45
2022/02/17 19:08:00;;;;;;;3.13;0.45;;;7.80;99.90;;;;;;20480314;28;20054;-44
2022/02/17 19:18:02;;;;;;;3.40;0.73;;;8.10;99.90;;;;;;20473999;28;20046;-44
2022/02/17 19:28:05;;;;;;;8.43;1.40;;;8.10;99.90;;;;;;20491187;28;20062;-44
2022/02/17 19:38:06;;;;;;;3.92;0.90;;;8.10;99.90;;;;;;20481925;28;20539;-44
2022/02/17 19:48:08;;;;;;;8.50;2.15;;;8.10;99.90;;;;;;20485982;28;20062;-46
2022/02/17 19:58:09;;;;;;;7.10;2.05;;;8.10;99.90;;;;;;20509696;28;20070;-46
2022/02/17 20:08:11;;;;;;;8.80;1.10;;;8.10;99.90;;;;;;20498025;28;20074;-46
2022/02/17 20:18:12;;;;;;;8.77;1.73;;;8.20;99.90;;;;;;20509313;28;20590;-46
2022/02/17 20:28:15;;;;;;;7.72;1.63;;;8.30;99.90;;;;;;20496792;28;20047;-46
2022/02/17 20:38:16;;;;;;;9.13;2.03;;;8.30;99.90;;;;;;20494565;28;20047;-46
2022/02/17 20:58:38;;;;;;;8.90;0.90;;;8.30;99.90;;;;;;20505945;28;20054;-46
2022/02/17 21:08:41;;;;;;;5.47;1.05;;;8.10;99.90;;;;;;20500037;28;20048;-46
2022/02/17 21:18:44;;;;;;;7.90;1.00;;;8.00;99.90;;;;;;20504113;28;20128;-44
2022/02/17 21:28:45;;;;;;;12.38;2.70;;;8.10;99.90;;;;;;20509600;28;20581;-44
2022/02/17 21:38:47;;;;;;;7.43;1.15;;;8.00;99.90;;;;;;20490273;28;20047;-44
2022/02/17 21:48:49;;;;;;;11.75;1.65;;;7.90;99.90;;;;;;20516679;28;20051;-46
2022/02/17 21:58:50;;;;;;;4.13;0.70;;;7.90;99.90;;;;;;20502487;28;20505;-46
2022/02/17 22:08:51;;;;;;;5.63;0.55;;;7.90;99.90;;;;;;20508028;28;20476;-46
2022/02/17 22:18:52;;;;;;;2.08;0.65;;;7.80;99.90;;;;;;20498217;28;20034;-46
2022/02/17 22:28:54;;;;;;;9.32;0.68;;;7.70;99.90;;;;;;20489513;28;20522;-46
2022/02/17 22:38:58;;;;;;;2.92;0.60;;;7.70;99.90;;;;;;20504107;28;20054;-46
2022/02/17 22:48:59;;;;;;;2.15;0.90;;;7.80;99.90;;;;;;20487620;28;20043;-44
2022/02/17 22:59:00;;;;;;;0.82;0.45;;;7.80;99.90;;;;;;20487570;28;20039;-46
2022/02/17 23:19:23;;;;;;;4.15;0.45;;;7.70;99.90;;;;;;20438291;28;20533;-46
2022/02/17 23:29:24;;;;;;;4.80;0.45;;;7.70;99.90;;;;;;20482581;28;20049;-46
2022/02/17 23:39:25;;;;;;;2.60;0.35;;;7.60;99.90;;;;;;20483914;28;20051;-46
2022/02/17 23:49:26;;;;;;;14.27;0.77;;;7.50;99.90;;;;;;20484177;28;20065;-46
2022/02/17 23:59:27;;;;;;;1.33;0.55;;;7.50;99.90;;;;;;20476731;28;20530;-46
